sensor_id;sensor_type;location;lat;lon;timestamp;P1;durP1;ratioP1;P2;durP2;ratioP2
5710;SDS011;61291;52.524;13.422;2022-10-26T00:00:46;82.50;;;73.70;;
5710;SDS011;61291;52.524;13.422;2022-10-26T00:03:13;81.40;;;73.90;;
5710;SDS011;61291;52.524;13.422;2022-10-26T00:05:38;83.43;;;74.50;;
5710;SDS011;61291;52.524;13.422;2022-10-26T00:08:04;83.27;;;74.17;;
5710;SDS011;61291;52.524;13.422;2022-10-26T00:10:32;81.10;;;72.50;;
5710;SDS011;61291;52.524;13.422;2022-10-26T00:12:59;81.90;;;73.23;;
5710;SDS011;61291;52.524;13.422;2022-10-26T00:15:24;80.63;;;71.97;;
5710;SDS011;61291;52.524;13.422;2022-10-26T00:17:50;82.20;;;73.60;;
5710;SDS011;61291;52.524;13.422;2022-10-26T00:20:15;85.60;;;73.07;;
5710;SDS011;61291;52.524;13.422;2022-10-26T00:22:41;80.10;;;70.33;;
5710;SDS011;61291;52.524;13.422;2022-10-26T00:25:07;80.83;;;72.60;;
5710;SDS011;61291;52.524;13.422;2022-10-26T00:27:33;81.07;;;71.60;;
5710;SDS011;61291;52.524;13.422;2022-10-26T00:30:01;80.70;;;72.77;;
5710;SDS011;61291;52.524;13.422;2022-10-26T00:32:27;81.40;;;72.63;;
5710;SDS011;61291;52.524;13.422;2022-10-26T00:34:53;94.60;;;73.37;;
5710;SDS011;61291;52.524;13.422;2022-10-26T00:37:18;102.47;;;75.47;;
5710;SDS011;61291;52.524;13.422;2022-10-26T00:39:44;87.50;;;74.73;;
5710;SDS011;61291;52.524;13.422;2022-10-26T00:42:17;91.70;;;75.10;;
5710;SDS011;61291;52.524;13.422;2022-10-26T00:47:11;81.00;;;72.60;;
5710;SDS011;61291;52.524;13.422;2022-10-26T00:49:58;98.63;;;73.97;;
5710;SDS011;61291;52.524;13.422;2022-10-26T00:52:28;81.30;;;72.90;;
5710;SDS011;61291;52.524;13.422;2022-10-26T00:54:53;88.93;;;69.27;;
5710;SDS011;61291;52.524;13.422;2022-10-26T00:57:20;92.37;;;76.20;;
5710;SDS011;61291;52.524;13.422;2022-10-26T00:59:45;78.63;;;70.47;;
5710;SDS011;61291;52.524;13.422;2022-10-26T01:02:11;84.50;;;72.27;;
5710;SDS011;61291;52.524;13.422;2022-10-26T01:04:37;76.40;;;68.00;;
5710;SDS011;61291;52.524;13.422;2022-10-26T01:07:04;90.13;;;72.97;;
5710;SDS011;61291;52.524;13.422;2022-10-26T01:09:32;105.40;;;71.57;;
5710;SDS011;61291;52.524;13.422;2022-10-26T01:11:59;84.73;;;72.90;;
5710;SDS011;61291;52.524;13.422;2022-10-26T01:14:25;94.70;;;74.37;;
5710;SDS011;61291;52.524;13.422;2022-10-26T01:17:08;91.17;;;70.87;;
5710;SDS011;61291;52.524;13.422;2022-10-26T01:20:11;97.10;;;86.70;;
5710;SDS011;61291;52.524;13.422;2022-10-26T01:23:02;103.83;;;88.40;;
5710;SDS011;61291;52.524;13.422;2022-10-26T01:25:40;101.37;;;90.87;;
5710;SDS011;61291;52.524;13.422;2022-10-26T01:31:38;96.03;;;81.78;;
5710;SDS011;61291;52.524;13.422;2022-10-26T01:34:13;107.03;;;95.90;;
5710;SDS011;61291;52.524;13.422;2022-10-26T01:36:55;104.43;;;93.43;;
5710;SDS011;61291;52.524;13.422;2022-10-26T01:39:28;104.43;;;93.60;;
5710;SDS011;61291;52.524;13.422;2022-10-26T01:42:08;104.50;;;93.70;;
5710;SDS011;61291;52.524;13.422;2022-10-26T01:44:37;104.93;;;93.57;;
5710;SDS011;61291;52.524;13.422;2022-10-26T01:47:10;107.30;;;91.90;;
5710;SDS011;61291;52.524;13.422;2022-10-26T01:49:40;96.40;;;85.67;;
5710;SDS011;61291;52.524;13.422;2022-10-26T01:52:10;96.93;;;86.43;;
5710;SDS011;61291;52.524;13.422;2022-10-26T01:54:36;102.37;;;91.60;;
5710;SDS011;61291;52.524;13.422;2022-10-26T01:57:06;99.93;;;89.57;;
5710;SDS011;61291;52.524;13.422;2022-10-26T01:59:45;102.17;;;91.73;;
5710;SDS011;61291;52.524;13.422;2022-10-26T02:02:44;103.60;;;92.23;;
5710;SDS011;61291;52.524;13.422;2022-10-26T02:05:38;101.72;;;90.80;;
5710;SDS011;61291;52.524;13.422;2022-10-26T02:08:32;101.50;;;89.87;;
5710;SDS011;61291;52.524;13.422;2022-10-26T02:11:31;97.57;;;87.10;;
5710;SDS011;61291;52.524;13.422;2022-10-26T02:14:07;98.47;;;88.57;;
5710;SDS011;61291;52.524;13.422;2022-10-26T02:16:55;93.20;;;83.30;;
5710;SDS011;61291;52.524;13.422;2022-10-26T02:19:30;116.93;;;89.20;;
5710;SDS011;61291;52.524;13.422;2022-10-26T02:24:49;93.30;;;83.03;;
5710;SDS011;61291;52.524;13.422;2022-10-26T02:27:22;95.00;;;84.37;;
5710;SDS011;61291;52.524;13.422;2022-10-26T02:29:50;100.30;;;89.63;;
5710;SDS011;61291;52.524;13.422;2022-10-26T02:32:18;98.13;;;88.10;;
5710;SDS011;61291;52.524;13.422;2022-10-26T02:34:45;102.57;;;89.50;;
5710;SDS011;61291;52.524;13.422;2022-10-26T02:37:12;98.87;;;88.33;;
5710;SDS011;61291;52.524;13.422;2022-10-26T02:39:42;99.87;;;89.10;;
5710;SDS011;61291;52.524;13.422;2022-10-26T02:42:08;90.88;;;79.82;;
5710;SDS011;61291;52.524;13.422;2022-10-26T02:44:36;97.03;;;86.40;;
5710;SDS011;61291;52.524;13.422;2022-10-26T02:47:10;99.13;;;88.90;;
5710;SDS011;61291;52.524;13.422;2022-10-26T02:49:36;100.50;;;87.53;;
5710;SDS011;61291;52.524;13.422;2022-10-26T02:52:03;106.80;;;86.03;;
5710;SDS011;61291;52.524;13.422;2022-10-26T02:54:39;106.10;;;90.80;;
5710;SDS011;61291;52.524;13.422;2022-10-26T02:57:18;102.07;;;91.03;;
5710;SDS011;61291;52.524;13.422;2022-10-26T02:59:48;108.20;;;90.20;;
5710;SDS011;61291;52.524;13.422;2022-10-26T03:02:18;105.03;;;89.03;;
5710;SDS011;61291;52.524;13.422;2022-10-26T03:04:44;106.27;;;94.90;;
5710;SDS011;61291;52.524;13.422;2022-10-26T03:07:12;108.97;;;95.27;;
5710;SDS011;61291;52.524;13.422;2022-10-26T03:09:43;105.93;;;93.07;;
5710;SDS011;61291;52.524;13.422;2022-10-26T03:12:09;105.47;;;93.70;;
5710;SDS011;61291;52.524;13.422;2022-10-26T03:14:34;122.50;;;94.70;;
5710;SDS011;61291;52.524;13.422;2022-10-26T03:17:00;103.97;;;93.07;;
5710;SDS011;61291;52.524;13.422;2022-10-26T03:19:25;106.93;;;95.23;;
5710;SDS011;61291;52.524;13.422;2022-10-26T03:21:50;104.97;;;93.47;;
5710;SDS011;61291;52.524;13.422;2022-10-26T03:24:16;104.10;;;92.90;;
5710;SDS011;61291;52.524;13.422;2022-10-26T03:26:41;100.57;;;90.10;;
5710;SDS011;61291;52.524;13.422;2022-10-26T03:29:07;118.27;;;91.37;;
5710;SDS011;61291;52.524;13.422;2022-10-26T03:31:33;102.37;;;89.57;;
5710;SDS011;61291;52.524;13.422;2022-10-26T03:33:58;109.40;;;88.53;;
5710;SDS011;61291;52.524;13.422;2022-10-26T03:36:24;98.33;;;83.67;;
5710;SDS011;61291;52.524;13.422;2022-10-26T03:38:49;109.77;;;88.60;;
5710;SDS011;61291;52.524;13.422;2022-10-26T03:41:15;106.07;;;83.07;;
5710;SDS011;61291;52.524;13.422;2022-10-26T03:43:40;108.97;;;86.50;;
5710;SDS011;61291;52.524;13.422;2022-10-26T03:46:06;94.50;;;83.70;;
5710;SDS011;61291;52.524;13.422;2022-10-26T03:48:31;97.17;;;85.83;;
5710;SDS011;61291;52.524;13.422;2022-10-26T03:50:57;111.03;;;86.43;;
5710;SDS011;61291;52.524;13.422;2022-10-26T03:53:23;99.23;;;83.53;;
5710;SDS011;61291;52.524;13.422;2022-10-26T03:55:49;98.70;;;86.43;;
5710;SDS011;61291;52.524;13.422;2022-10-26T03:58:14;96.20;;;85.70;;
5710;SDS011;61291;52.524;13.422;2022-10-26T04:00:40;102.40;;;90.33;;
5710;SDS011;61291;52.524;13.422;2022-10-26T04:03:05;91.60;;;71.30;;
5710;SDS011;61291;52.524;13.422;2022-10-26T04:05:31;112.87;;;79.73;;
5710;SDS011;61291;52.524;13.422;2022-10-26T04:08:00;115.43;;;77.13;;
5710;SDS011;61291;52.524;13.422;2022-10-26T04:10:29;108.70;;;83.83;;
5710;SDS011;61291;52.524;13.422;2022-10-26T04:12:55;94.57;;;80.27;;
5710;SDS011;61291;52.524;13.422;2022-10-26T04:15:22;108.13;;;83.10;;
5710;SDS011;61291;52.524;13.422;2022-10-26T04:17:53;111.20;;;82.23;;
5710;SDS011;61291;52.524;13.422;2022-10-26T04:20:20;118.90;;;86.73;;
5710;SDS011;61291;52.524;13.422;2022-10-26T04:22:46;89.17;;;76.17;;
5710;SDS011;61291;52.524;13.422;2022-10-26T04:25:11;94.83;;;77.47;;
5710;SDS011;61291;52.524;13.422;2022-10-26T04:27:37;93.93;;;82.90;;
5710;SDS011;61291;52.524;13.422;2022-10-26T04:30:03;89.93;;;79.50;;
5710;SDS011;61291;52.524;13.422;2022-10-26T04:32:32;106.07;;;73.40;;
5710;SDS011;61291;52.524;13.422;2022-10-26T04:34:57;92.77;;;77.00;;
5710;SDS011;61291;52.524;13.422;2022-10-26T04:37:22;86.23;;;75.43;;
5710;SDS011;61291;52.524;13.422;2022-10-26T04:39:48;95.40;;;80.80;;
5710;SDS011;61291;52.524;13.422;2022-10-26T04:42:13;93.00;;;76.60;;
5710;SDS011;61291;52.524;13.422;2022-10-26T04:44:39;86.53;;;73.83;;
5710;SDS011;61291;52.524;13.422;2022-10-26T04:47:04;88.13;;;77.20;;
5710;SDS011;61291;52.524;13.422;2022-10-26T04:49:30;96.53;;;77.03;;
5710;SDS011;61291;52.524;13.422;2022-10-26T04:51:55;95.13;;;80.40;;
5710;SDS011;61291;52.524;13.422;2022-10-26T04:54:21;105.43;;;82.87;;
5710;SDS011;61291;52.524;13.422;2022-10-26T04:56:46;94.43;;;76.80;;
5710;SDS011;61291;52.524;13.422;2022-10-26T04:59:14;89.77;;;74.10;;
5710;SDS011;61291;52.524;13.422;2022-10-26T05:01:49;90.47;;;79.73;;
5710;SDS011;61291;52.524;13.422;2022-10-26T05:04:15;93.87;;;80.40;;
5710;SDS011;61291;52.524;13.422;2022-10-26T05:06:40;115.23;;;79.90;;
5710;SDS011;61291;52.524;13.422;2022-10-26T05:09:06;88.83;;;79.40;;
5710;SDS011;61291;52.524;13.422;2022-10-26T05:11:31;95.50;;;73.83;;
5710;SDS011;61291;52.524;13.422;2022-10-26T05:13:57;94.83;;;84.37;;
5710;SDS011;61291;52.524;13.422;2022-10-26T05:16:22;103.30;;;82.67;;
5710;SDS011;61291;52.524;13.422;2022-10-26T05:18:48;86.93;;;72.67;;
5710;SDS011;61291;52.524;13.422;2022-10-26T05:21:13;101.33;;;77.50;;
5710;SDS011;61291;52.524;13.422;2022-10-26T05:23:43;98.83;;;73.30;;
5710;SDS011;61291;52.524;13.422;2022-10-26T05:26:15;92.77;;;76.20;;
5710;SDS011;61291;52.524;13.422;2022-10-26T05:28:40;86.03;;;75.63;;
5710;SDS011;61291;52.524;13.422;2022-10-26T05:31:06;90.50;;;79.50;;
5710;SDS011;61291;52.524;13.422;2022-10-26T05:33:31;103.70;;;76.97;;
5710;SDS011;61291;52.524;13.422;2022-10-26T05:35:56;88.77;;;79.37;;
5710;SDS011;61291;52.524;13.422;2022-10-26T05:38:22;88.77;;;79.13;;
5710;SDS011;61291;52.524;13.422;2022-10-26T05:40:48;95.47;;;81.17;;
5710;SDS011;61291;52.524;13.422;2022-10-26T05:43:15;87.25;;;64.95;;
5710;SDS011;61291;52.524;13.422;2022-10-26T05:45:40;127.07;;;79.23;;
5710;SDS011;61291;52.524;13.422;2022-10-26T05:48:06;116.57;;;83.53;;
5710;SDS011;61291;52.524;13.422;2022-10-26T05:50:31;92.80;;;79.30;;
5710;SDS011;61291;52.524;13.422;2022-10-26T05:52:57;99.00;;;77.87;;
5710;SDS011;61291;52.524;13.422;2022-10-26T05:55:22;94.00;;;77.33;;
5710;SDS011;61291;52.524;13.422;2022-10-26T05:57:48;80.40;;;71.60;;
5710;SDS011;61291;52.524;13.422;2022-10-26T06:00:18;92.53;;;80.90;;
5710;SDS011;61291;52.524;13.422;2022-10-26T06:02:58;93.83;;;80.40;;
5710;SDS011;61291;52.524;13.422;2022-10-26T06:05:28;99.47;;;78.33;;
5710;SDS011;61291;52.524;13.422;2022-10-26T06:07:59;111.67;;;95.17;;
5710;SDS011;61291;52.524;13.422;2022-10-26T06:10:25;108.73;;;88.33;;
5710;SDS011;61291;52.524;13.422;2022-10-26T06:12:51;99.50;;;85.93;;
5710;SDS011;61291;52.524;13.422;2022-10-26T06:15:20;90.07;;;80.67;;
5710;SDS011;61291;52.524;13.422;2022-10-26T06:18:04;91.17;;;81.23;;
5710;SDS011;61291;52.524;13.422;2022-10-26T06:21:00;91.53;;;81.63;;
5710;SDS011;61291;52.524;13.422;2022-10-26T06:23:48;103.55;;;72.90;;
5710;SDS011;61291;52.524;13.422;2022-10-26T06:26:41;113.47;;;79.60;;
5710;SDS011;61291;52.524;13.422;2022-10-26T06:29:37;95.27;;;82.13;;
5710;SDS011;61291;52.524;13.422;2022-10-26T06:32:13;106.70;;;77.20;;
5710;SDS011;61291;52.524;13.422;2022-10-26T06:34:42;79.80;;;71.43;;
5710;SDS011;61291;52.524;13.422;2022-10-26T06:37:10;86.67;;;75.40;;
5710;SDS011;61291;52.524;13.422;2022-10-26T06:39:37;82.80;;;74.70;;
5710;SDS011;61291;52.524;13.422;2022-10-26T06:42:08;93.43;;;75.60;;
5710;SDS011;61291;52.524;13.422;2022-10-26T06:44:35;79.97;;;71.60;;
5710;SDS011;61291;52.524;13.422;2022-10-26T06:47:05;87.70;;;78.40;;
5710;SDS011;61291;52.524;13.422;2022-10-26T06:49:54;95.47;;;77.53;;
5710;SDS011;61291;52.524;13.422;2022-10-26T06:52:41;85.37;;;76.40;;
5710;SDS011;61291;52.524;13.422;2022-10-26T06:55:13;83.20;;;74.30;;
5710;SDS011;61291;52.524;13.422;2022-10-26T06:57:40;81.67;;;72.57;;
5710;SDS011;61291;52.524;13.422;2022-10-26T07:00:13;90.47;;;80.87;;
5710;SDS011;61291;52.524;13.422;2022-10-26T07:02:45;80.30;;;71.90;;
5710;SDS011;61291;52.524;13.422;2022-10-26T07:05:12;84.80;;;74.10;;
5710;SDS011;61291;52.524;13.422;2022-10-26T07:07:41;81.67;;;73.10;;
5710;SDS011;61291;52.524;13.422;2022-10-26T07:10:08;86.40;;;77.30;;
5710;SDS011;61291;52.524;13.422;2022-10-26T07:12:35;81.77;;;73.30;;
5710;SDS011;61291;52.524;13.422;2022-10-26T07:15:01;90.30;;;81.03;;
5710;SDS011;61291;52.524;13.422;2022-10-26T07:17:27;91.77;;;82.57;;
5710;SDS011;61291;52.524;13.422;2022-10-26T07:19:54;86.40;;;78.20;;
5710;SDS011;61291;52.524;13.422;2022-10-26T07:22:20;82.63;;;74.47;;
5710;SDS011;61291;52.524;13.422;2022-10-26T07:24:45;98.10;;;81.77;;
5710;SDS011;61291;52.524;13.422;2022-10-26T07:27:14;92.20;;;83.37;;
5710;SDS011;61291;52.524;13.422;2022-10-26T07:29:40;91.10;;;81.97;;
5710;SDS011;61291;52.524;13.422;2022-10-26T07:32:06;97.27;;;87.23;;
5710;SDS011;61291;52.524;13.422;2022-10-26T07:34:31;83.30;;;74.20;;
5710;SDS011;61291;52.524;13.422;2022-10-26T07:37:00;97.23;;;87.30;;
5710;SDS011;61291;52.524;13.422;2022-10-26T07:39:26;93.50;;;84.13;;
5710;SDS011;61291;52.524;13.422;2022-10-26T07:41:51;96.93;;;86.50;;
5710;SDS011;61291;52.524;13.422;2022-10-26T07:44:17;96.07;;;86.40;;
5710;SDS011;61291;52.524;13.422;2022-10-26T07:46:43;94.17;;;84.50;;
5710;SDS011;61291;52.524;13.422;2022-10-26T07:49:08;92.50;;;83.23;;
5710;SDS011;61291;52.524;13.422;2022-10-26T07:51:34;89.43;;;80.73;;
5710;SDS011;61291;52.524;13.422;2022-10-26T07:54:00;91.00;;;82.67;;
5710;SDS011;61291;52.524;13.422;2022-10-26T07:56:25;94.33;;;85.13;;
5710;SDS011;61291;52.524;13.422;2022-10-26T07:58:51;94.47;;;84.73;;
5710;SDS011;61291;52.524;13.422;2022-10-26T08:01:17;93.83;;;84.63;;
5710;SDS011;61291;52.524;13.422;2022-10-26T08:03:43;95.07;;;86.07;;
5710;SDS011;61291;52.524;13.422;2022-10-26T08:06:09;90.90;;;82.80;;
5710;SDS011;61291;52.524;13.422;2022-10-26T08:08:34;88.93;;;79.70;;
5710;SDS011;61291;52.524;13.422;2022-10-26T08:11:00;91.77;;;83.40;;
5710;SDS011;61291;52.524;13.422;2022-10-26T08:13:25;95.33;;;86.40;;
5710;SDS011;61291;52.524;13.422;2022-10-26T08:16:02;89.90;;;80.50;;
5710;SDS011;61291;52.524;13.422;2022-10-26T08:18:28;91.27;;;82.30;;
5710;SDS011;61291;52.524;13.422;2022-10-26T08:20:54;91.70;;;82.70;;
5710;SDS011;61291;52.524;13.422;2022-10-26T08:23:25;89.43;;;80.67;;
5710;SDS011;61291;52.524;13.422;2022-10-26T08:25:50;86.40;;;78.03;;
5710;SDS011;61291;52.524;13.422;2022-10-26T08:28:15;92.00;;;82.70;;
5710;SDS011;61291;52.524;13.422;2022-10-26T08:30:41;88.40;;;79.60;;
5710;SDS011;61291;52.524;13.422;2022-10-26T08:33:06;97.83;;;88.67;;
5710;SDS011;61291;52.524;13.422;2022-10-26T08:35:33;93.68;;;85.05;;
5710;SDS011;61291;52.524;13.422;2022-10-26T08:37:59;84.77;;;77.07;;
5710;SDS011;61291;52.524;13.422;2022-10-26T08:40:31;90.00;;;81.83;;
5710;SDS011;61291;52.524;13.422;2022-10-26T08:43:17;95.10;;;86.70;;
5710;SDS011;61291;52.524;13.422;2022-10-26T08:45:50;85.20;;;77.37;;
5710;SDS011;61291;52.524;13.422;2022-10-26T08:48:23;89.50;;;81.27;;
5710;SDS011;61291;52.524;13.422;2022-10-26T08:50:54;85.97;;;78.37;;
5710;SDS011;61291;52.524;13.422;2022-10-26T08:53:32;92.20;;;82.97;;
5710;SDS011;61291;52.524;13.422;2022-10-26T08:56:08;86.17;;;77.90;;
5710;SDS011;61291;52.524;13.422;2022-10-26T08:58:38;91.33;;;82.63;;
5710;SDS011;61291;52.524;13.422;2022-10-26T09:01:08;85.53;;;78.00;;
5710;SDS011;61291;52.524;13.422;2022-10-26T09:03:34;84.20;;;76.57;;
5710;SDS011;61291;52.524;13.422;2022-10-26T09:06:11;88.27;;;81.13;;
5710;SDS011;61291;52.524;13.422;2022-10-26T09:08:46;87.77;;;80.47;;
5710;SDS011;61291;52.524;13.422;2022-10-26T09:11:30;87.67;;;80.07;;
5710;SDS011;61291;52.524;13.422;2022-10-26T09:16:50;86.50;;;78.60;;
5710;SDS011;61291;52.524;13.422;2022-10-26T09:19:50;92.33;;;82.57;;
5710;SDS011;61291;52.524;13.422;2022-10-26T09:22:37;93.00;;;85.00;;
5710;SDS011;61291;52.524;13.422;2022-10-26T09:25:17;89.63;;;82.30;;
5710;SDS011;61291;52.524;13.422;2022-10-26T09:27:53;94.20;;;86.00;;
5710;SDS011;61291;52.524;13.422;2022-10-26T09:30:21;93.13;;;81.77;;
5710;SDS011;61291;52.524;13.422;2022-10-26T09:32:59;92.20;;;83.37;;
5710;SDS011;61291;52.524;13.422;2022-10-26T09:35:38;87.40;;;78.70;;
5710;SDS011;61291;52.524;13.422;2022-10-26T09:41:35;86.70;;;78.43;;
5710;SDS011;61291;52.524;13.422;2022-10-26T09:44:04;90.50;;;81.67;;
5710;SDS011;61291;52.524;13.422;2022-10-26T09:46:45;88.80;;;80.40;;
5710;SDS011;61291;52.524;13.422;2022-10-26T09:49:19;89.07;;;80.93;;
5710;SDS011;61291;52.524;13.422;2022-10-26T09:51:54;91.03;;;82.23;;
5710;SDS011;61291;52.524;13.422;2022-10-26T09:54:19;84.17;;;76.77;;
5710;SDS011;61291;52.524;13.422;2022-10-26T09:56:50;87.90;;;79.13;;
5710;SDS011;61291;52.524;13.422;2022-10-26T09:59:20;83.90;;;76.47;;
5710;SDS011;61291;52.524;13.422;2022-10-26T10:01:48;85.40;;;77.20;;
5710;SDS011;61291;52.524;13.422;2022-10-26T10:06:46;81.97;;;75.03;;
5710;SDS011;61291;52.524;13.422;2022-10-26T10:09:24;85.10;;;77.60;;
5710;SDS011;61291;52.524;13.422;2022-10-26T10:11:51;85.17;;;77.30;;
5710;SDS011;61291;52.524;13.422;2022-10-26T10:14:21;88.73;;;81.13;;
5710;SDS011;61291;52.524;13.422;2022-10-26T10:16:52;82.07;;;75.43;;
5710;SDS011;61291;52.524;13.422;2022-10-26T10:19:21;85.60;;;78.40;;
5710;SDS011;61291;52.524;13.422;2022-10-26T10:21:49;80.83;;;74.17;;
5710;SDS011;61291;52.524;13.422;2022-10-26T10:24:23;82.03;;;74.90;;
5710;SDS011;61291;52.524;13.422;2022-10-26T10:26:54;83.77;;;77.10;;
5710;SDS011;61291;52.524;13.422;2022-10-26T10:29:24;89.27;;;81.97;;
5710;SDS011;61291;52.524;13.422;2022-10-26T10:31:54;69.93;;;64.15;;
5710;SDS011;61291;52.524;13.422;2022-10-26T10:34:21;79.80;;;72.70;;
5710;SDS011;61291;52.524;13.422;2022-10-26T10:36:47;76.63;;;70.77;;
5710;SDS011;61291;52.524;13.422;2022-10-26T10:39:25;76.93;;;70.20;;
5710;SDS011;61291;52.524;13.422;2022-10-26T10:42:22;78.47;;;71.93;;
5710;SDS011;61291;52.524;13.422;2022-10-26T10:44:54;73.60;;;67.60;;
5710;SDS011;61291;52.524;13.422;2022-10-26T10:47:24;71.57;;;65.23;;
5710;SDS011;61291;52.524;13.422;2022-10-26T10:50:03;68.57;;;62.83;;
5710;SDS011;61291;52.524;13.422;2022-10-26T10:52:35;72.70;;;66.40;;
5710;SDS011;61291;52.524;13.422;2022-10-26T10:55:09;71.30;;;65.13;;
5710;SDS011;61291;52.524;13.422;2022-10-26T10:57:48;68.70;;;63.20;;
5710;SDS011;61291;52.524;13.422;2022-10-26T11:00:34;64.80;;;59.67;;
5710;SDS011;61291;52.524;13.422;2022-10-26T11:08:41;64.73;;;59.10;;
5710;SDS011;61291;52.524;13.422;2022-10-26T11:17:43;65.03;;;58.13;;
5710;SDS011;61291;52.524;13.422;2022-10-26T11:19:48;66.80;;;60.50;;
5710;SDS011;61291;52.524;13.422;2022-10-26T11:22:32;66.67;;;60.70;;
5710;SDS011;61291;52.524;13.422;2022-10-26T11:25:24;64.80;;;58.77;;
5710;SDS011;61291;52.524;13.422;2022-10-26T11:27:58;63.60;;;58.53;;
5710;SDS011;61291;52.524;13.422;2022-10-26T11:30:39;63.03;;;57.30;;
5710;SDS011;61291;52.524;13.422;2022-10-26T11:33:14;68.07;;;62.47;;
5710;SDS011;61291;52.524;13.422;2022-10-26T11:35:50;66.40;;;61.23;;
5710;SDS011;61291;52.524;13.422;2022-10-26T11:38:32;61.13;;;55.67;;
5710;SDS011;61291;52.524;13.422;2022-10-26T11:41:17;64.47;;;58.93;;
5710;SDS011;61291;52.524;13.422;2022-10-26T11:43:44;70.40;;;64.40;;
5710;SDS011;61291;52.524;13.422;2022-10-26T11:49:03;75.20;;;61.07;;
5710;SDS011;61291;52.524;13.422;2022-10-26T11:51:51;77.03;;;60.57;;
5710;SDS011;61291;52.524;13.422;2022-10-26T11:54:33;64.70;;;58.50;;
5710;SDS011;61291;52.524;13.422;2022-10-26T11:57:03;65.17;;;60.00;;
5710;SDS011;61291;52.524;13.422;2022-10-26T11:59:30;68.37;;;62.53;;
5710;SDS011;61291;52.524;13.422;2022-10-26T12:02:03;69.00;;;61.50;;
5710;SDS011;61291;52.524;13.422;2022-10-26T12:04:36;70.23;;;63.10;;
5710;SDS011;61291;52.524;13.422;2022-10-26T12:07:05;114.83;;;66.47;;
5710;SDS011;61291;52.524;13.422;2022-10-26T12:09:36;70.70;;;64.73;;
5710;SDS011;61291;52.524;13.422;2022-10-26T12:14:57;67.90;;;60.50;;
5710;SDS011;61291;52.524;13.422;2022-10-26T12:17:29;67.57;;;62.27;;
5710;SDS011;61291;52.524;13.422;2022-10-26T12:20:09;89.43;;;67.47;;
5710;SDS011;61291;52.524;13.422;2022-10-26T12:23:04;74.70;;;68.00;;
5710;SDS011;61291;52.524;13.422;2022-10-26T12:25:33;68.20;;;61.40;;
5710;SDS011;61291;52.524;13.422;2022-10-26T12:27:58;68.97;;;63.43;;
5710;SDS011;61291;52.524;13.422;2022-10-26T12:33:01;70.10;;;64.47;;
5710;SDS011;61291;52.524;13.422;2022-10-26T12:35:47;73.90;;;66.30;;
5710;SDS011;61291;52.524;13.422;2022-10-26T12:40:47;71.07;;;61.43;;
5710;SDS011;61291;52.524;13.422;2022-10-26T12:43:35;71.17;;;63.47;;
5710;SDS011;61291;52.524;13.422;2022-10-26T12:46:36;67.33;;;61.03;;
5710;SDS011;61291;52.524;13.422;2022-10-26T12:48:53;69.03;;;63.00;;
5710;SDS011;61291;52.524;13.422;2022-10-26T12:57:04;69.73;;;63.43;;
5710;SDS011;61291;52.524;13.422;2022-10-26T12:59:56;69.10;;;63.30;;
5710;SDS011;61291;52.524;13.422;2022-10-26T13:02:33;69.87;;;64.43;;
5710;SDS011;61291;52.524;13.422;2022-10-26T13:08:02;66.13;;;61.03;;
5710;SDS011;61291;52.524;13.422;2022-10-26T13:10:31;67.93;;;62.73;;
5710;SDS011;61291;52.524;13.422;2022-10-26T13:12:58;67.70;;;62.00;;
5710;SDS011;61291;52.524;13.422;2022-10-26T13:15:30;67.67;;;61.83;;
5710;SDS011;61291;52.524;13.422;2022-10-26T13:20:35;69.37;;;63.47;;
5710;SDS011;61291;52.524;13.422;2022-10-26T13:23:15;68.37;;;62.60;;
5710;SDS011;61291;52.524;13.422;2022-10-26T13:26:00;66.23;;;61.13;;
5710;SDS011;61291;52.524;13.422;2022-10-26T13:31:10;68.80;;;61.80;;
5710;SDS011;61291;52.524;13.422;2022-10-26T13:33:55;62.40;;;57.60;;
5710;SDS011;61291;52.524;13.422;2022-10-26T13:36:31;62.53;;;56.50;;
5710;SDS011;61291;52.524;13.422;2022-10-26T13:39:05;60.17;;;55.13;;
5710;SDS011;61291;52.524;13.422;2022-10-26T13:41:36;60.33;;;55.63;;
5710;SDS011;61291;52.524;13.422;2022-10-26T13:44:05;63.13;;;57.93;;
5710;SDS011;61291;52.524;13.422;2022-10-26T13:46:35;63.10;;;56.20;;
5710;SDS011;61291;52.524;13.422;2022-10-26T13:49:08;61.27;;;56.20;;
5710;SDS011;61291;52.524;13.422;2022-10-26T13:51:43;60.97;;;56.10;;
5710;SDS011;61291;52.524;13.422;2022-10-26T13:54:15;63.33;;;58.73;;
5710;SDS011;61291;52.524;13.422;2022-10-26T13:57:00;62.40;;;58.00;;
5710;SDS011;61291;52.524;13.422;2022-10-26T13:59:29;63.70;;;59.10;;
5710;SDS011;61291;52.524;13.422;2022-10-26T14:02:07;60.77;;;56.07;;
5710;SDS011;61291;52.524;13.422;2022-10-26T14:04:43;62.87;;;56.87;;
5710;SDS011;61291;52.524;13.422;2022-10-26T14:07:14;58.70;;;53.87;;
5710;SDS011;61291;52.524;13.422;2022-10-26T14:09:48;59.00;;;54.00;;
5710;SDS011;61291;52.524;13.422;2022-10-26T14:12:14;62.30;;;56.70;;
5710;SDS011;61291;52.524;13.422;2022-10-26T14:14:41;61.27;;;55.60;;
5710;SDS011;61291;52.524;13.422;2022-10-26T14:17:13;59.50;;;54.23;;
5710;SDS011;61291;52.524;13.422;2022-10-26T14:19:45;59.42;;;54.13;;
5710;SDS011;61291;52.524;13.422;2022-10-26T14:22:46;59.57;;;54.23;;
5710;SDS011;61291;52.524;13.422;2022-10-26T14:25:15;59.80;;;53.70;;
5710;SDS011;61291;52.524;13.422;2022-10-26T14:27:49;58.20;;;53.80;;
5710;SDS011;61291;52.524;13.422;2022-10-26T14:30:19;57.67;;;53.60;;
5710;SDS011;61291;52.524;13.422;2022-10-26T14:32:51;56.57;;;52.43;;
5710;SDS011;61291;52.524;13.422;2022-10-26T14:35:17;58.53;;;53.80;;
5710;SDS011;61291;52.524;13.422;2022-10-26T14:37:49;61.50;;;56.30;;
5710;SDS011;61291;52.524;13.422;2022-10-26T14:40:18;58.80;;;54.20;;
5710;SDS011;61291;52.524;13.422;2022-10-26T14:42:46;51.87;;;48.17;;
5710;SDS011;61291;52.524;13.422;2022-10-26T14:45:19;58.30;;;53.80;;
5710;SDS011;61291;52.524;13.422;2022-10-26T14:47:49;62.23;;;57.00;;
5710;SDS011;61291;52.524;13.422;2022-10-26T14:50:21;58.83;;;54.33;;
5710;SDS011;61291;52.524;13.422;2022-10-26T14:52:48;52.10;;;47.90;;
5710;SDS011;61291;52.524;13.422;2022-10-26T14:55:16;56.33;;;51.87;;
5710;SDS011;61291;52.524;13.422;2022-10-26T14:57:42;57.63;;;53.13;;
5710;SDS011;61291;52.524;13.422;2022-10-26T15:02:47;60.03;;;55.33;;
5710;SDS011;61291;52.524;13.422;2022-10-26T15:05:29;60.57;;;55.30;;
5710;SDS011;61291;52.524;13.422;2022-10-26T15:07:57;56.23;;;51.83;;
5710;SDS011;61291;52.524;13.422;2022-10-26T15:15:45;55.47;;;51.17;;
5710;SDS011;61291;52.524;13.422;2022-10-26T15:18:21;57.97;;;53.77;;
5710;SDS011;61291;52.524;13.422;2022-10-26T15:20:49;54.60;;;50.70;;
5710;SDS011;61291;52.524;13.422;2022-10-26T15:23:15;52.87;;;48.57;;
5710;SDS011;61291;52.524;13.422;2022-10-26T15:25:49;54.03;;;49.97;;
5710;SDS011;61291;52.524;13.422;2022-10-26T15:28:23;57.20;;;52.40;;
5710;SDS011;61291;52.524;13.422;2022-10-26T15:31:04;57.77;;;52.57;;
5710;SDS011;61291;52.524;13.422;2022-10-26T15:33:36;55.77;;;51.30;;
5710;SDS011;61291;52.524;13.422;2022-10-26T15:38:32;54.80;;;50.53;;
5710;SDS011;61291;52.524;13.422;2022-10-26T15:40:58;58.90;;;54.40;;
5710;SDS011;61291;52.524;13.422;2022-10-26T15:43:23;54.93;;;49.77;;
5710;SDS011;61291;52.524;13.422;2022-10-26T15:45:49;57.90;;;53.40;;